Time;durP1;ratioP1;P1;durP2;ratioP2;P2;SDS_P1;SDS_P2;PMS_P1;PMS_P2;Temp;Humidity;BMP_temperature;BMP_pressure;BME280_temperature;BME280_humidity;BME280_pressure;Samples;Min_cycle;Max_cycle;Signal;HPM_P1;HPM_P2
2022/04/28 00:00:07;;;;;;;;;;;;;;;;;;5051880;28;889;-72
2022/04/28 00:02:33;;;;;;;;;;;;;;;;;;5051610;28;919;-73
2022/04/28 00:05:01;;;;;;;;;;;;;;;;;;5050194;28;1506;-73
2022/04/28 00:07:27;;;;;;;;;;;;;;;;;;5051365;28;1910;-71
2022/04/28 00:09:53;;;;;;;;;;;;;;;;;;5051298;28;1131;-73
2022/04/28 00:12:20;;;;;;;;;;;;;;;;;;5050415;28;1387;-73
2022/04/28 00:14:46;;;;;;;;;;;;;;;;;;5051596;28;1299;-73
2022/04/28 00:17:12;;;;;;;;;;;;;;;;;;5050773;28;1067;-73
2022/04/28 00:19:38;;;;;;;;;;;;;;;;;;5051316;28;854;-72
2022/04/28 00:22:06;;;;;;;;;;;;;;;;;;5051235;28;1063;-72
2022/04/28 00:24:32;;;;;;;;;;;;;;;;;;5051495;28;865;-73
2022/04/28 00:26:59;;;;;;;;;;;;;;;;;;5050664;28;1981;-71
2022/04/28 00:29:25;;;;;;;;;;;;;;;;;;5050137;28;1183;-72
2022/04/28 00:31:51;;;;;;;;;;;;;;;;;;5051238;28;1055;-73
2022/04/28 00:34:17;;;;;;;;;;;;;;;;;;5049542;28;1614;-73
2022/04/28 00:36:44;;;;;;;;;;;;;;;;;;5050969;28;1315;-72
2022/04/28 00:39:11;;;;;;;;;;;;;;;;;;5049652;28;1143;-72
2022/04/28 00:41:39;;;;;;;;;;;;;;;;;;5049527;28;826;-73
2022/04/28 00:44:07;;;;;;;;;;;;;;;;;;5049368;28;1257;-72
2022/04/28 00:46:34;;;;;;;;;;;;;;;;;;5049172;28;1926;-73
2022/04/28 00:51:44;;;;;;;;;;;;;;;;;;5049695;28;933;-72
2022/04/28 00:54:11;;;;;;;;;;;;;;;;;;5049516;28;1190;-73
2022/04/28 00:56:38;;;;;;;;;;;;;;;;;;5049717;28;1338;-73
2022/04/28 00:59:04;;;;;;;;;;;;;;;;;;5049130;28;1373;-72
2022/04/28 01:01:31;;;;;;;;;;;;;;;;;;5050729;28;869;-73
2022/04/28 01:03:57;;;;;;;;;;;;;;;;;;5049409;28;1304;-73
2022/04/28 01:06:23;;;;;;;;;;;;;;;;;;5049890;28;1965;-73
2022/04/28 01:08:49;;;;;;;;;;;;;;;;;;5050644;28;1412;-71
2022/04/28 01:11:19;;;;;;;;;;;;;;;;;;5045944;28;1542;-73
2022/04/28 01:13:54;;;;;;;;;;;;;;;;;;5049289;28;1668;-72
2022/04/28 01:16:27;;;;;;;;;;;;;;;;;;5047886;28;1416;-73
2022/04/28 01:18:54;;;;;;;;;;;;;;;;;;5049216;28;1295;-72
2022/04/28 01:21:21;;;;;;;;;;;;;;;;;;5049208;28;1175;-72
2022/04/28 01:23:50;;;;;;;;;;;;;;;;;;5049278;28;1355;-73
2022/04/28 01:26:17;;;;;;;;;;;;;;;;;;5047993;28;1277;-73
2022/04/28 01:28:43;;;;;;;;;;;;;;;;;;5049182;28;1997;-72
2022/04/28 01:31:10;;;;;;;;;;;;;;;;;;5048487;28;1118;-72
2022/04/28 01:33:44;;;;;;;;;;;;;;;;;;5049305;28;1368;-72
2022/04/28 01:36:14;;;;;;;;;;;;;;;;;;5048270;28;1470;-72
2022/04/28 01:38:42;;;;;;;;;;;;;;;;;;5049153;28;1561;-73
2022/04/28 01:41:08;;;;;;;;;;;;;;;;;;5048646;28;1464;-72
2022/04/28 01:43:35;;;;;;;;;;;;;;;;;;5049039;28;1447;-72
2022/04/28 01:46:02;;;;;;;;;;;;;;;;;;5049823;28;1320;-72
2022/04/28 01:48:46;;;;;;;;;;;;;;;;;;5049726;28;1918;-73
2022/04/28 01:57:16;;;;;;;;;;;;;;;;;;5031042;28;2381;-72
2022/04/28 02:00:04;;;;;;;;;;;;;;;;;;5018781;28;1306;-72
2022/04/28 02:02:47;;;;;;;;;;;;;;;;;;5042282;28;1498;-72
2022/04/28 02:05:13;;;;;;;;;;;;;;;;;;5008444;28;1311;-72
2022/04/28 02:07:40;;;;;;;;;;;;;;;;;;5008768;28;1914;-72
2022/04/28 02:10:09;;;;;;;;;;;;;;;;;;5009152;28;1189;-72
2022/04/28 02:12:37;;;;;;;;;;;;;;;;;;5009039;28;1127;-73
2022/04/28 02:15:33;;;;;;;;;;;;;;;;;;5024806;28;1417;-72
2022/04/28 02:18:27;;;;;;;;;;;;;;;;;;5010126;28;1163;-73
2022/04/28 02:20:53;;;;;;;;;;;;;;;;;;5009468;28;1216;-73
2022/04/28 02:23:22;;;;;;;;;;;;;;;;;;5009269;28;1341;-73
2022/04/28 02:25:50;;;;;;;;;;;;;;;;;;5042323;28;1424;-73
2022/04/28 02:28:18;;;;;;;;;;;;;;;;;;5010263;28;1914;-73
2022/04/28 02:30:45;;;;;;;;;;;;;;;;;;5013894;28;861;-73
2022/04/28 02:33:13;;;;;;;;;;;;;;;;;;5013297;28;1339;-72
2022/04/28 02:35:54;;;;;;;;;;;;;;;;;;5045585;28;1330;-72
2022/04/28 02:38:20;;;;;;;;;;;;;;;;;;5013559;28;759;-72
2022/04/28 02:40:47;;;;;;;;;;;;;;;;;;5012523;28;1180;-72
2022/04/28 02:43:15;;;;;;;;;;;;;;;;;;5013255;28;1099;-72
2022/04/28 02:45:43;;;;;;;;;;;;;;;;;;5011848;28;1404;-71
2022/04/28 02:48:11;;;;;;;;;;;;;;;;;;5011851;28;1973;-73
2022/04/28 02:50:37;;;;;;;;;;;;;;;;;;5013347;28;1111;-72
2022/04/28 02:53:04;;;;;;;;;;;;;;;;;;5012109;28;941;-72
2022/04/28 02:55:39;;;;;;;;;;;;;;;;;;5011826;28;1696;-72
2022/04/28 02:58:05;;;;;;;;;;;;;;;;;;5035752;23;3844;-70
2022/04/28 03:00:33;;;;;;;;;;;;;;;;;;5031516;28;1529;-69
2022/04/28 03:03:02;;;;;;;;;;;;;;;;;;5030816;28;1292;-71
2022/04/28 03:05:28;;;;;;;;;;;;;;;;;;5031478;28;1147;-70
2022/04/28 03:10:49;;;;;;;;;;;;;;;;;;5031903;28;1677;-72
2022/04/28 03:13:17;;;;;;;;;;;;;;;;;;5031179;28;1513;-70
2022/04/28 03:15:45;;;;;;;;;;;;;;;;;;5032661;28;1233;-70
2022/04/28 03:18:11;;;;;;;;;;;;;;;;;;5039345;28;1848;-72
2022/04/28 03:20:38;;;;;;;;;;;;;;;;;;5038258;28;790;-70
2022/04/28 03:23:05;;;;;;;;;;;;;;;;;;5032809;28;1431;-70
2022/04/28 03:25:32;;;;;;;;;;;;;;;;;;5030999;28;2022;-70
2022/04/28 03:27:58;;;;;;;;;;;;;;;;;;5030047;28;1918;-70
2022/04/28 03:30:25;;;;;;;;;;;;;;;;;;5031350;28;1183;-69
2022/04/28 03:33:06;;;;;;;;;;;;;;;;;;5031455;28;1329;-70
2022/04/28 03:35:32;;;;;;;;;;;;;;;;;;5030894;28;1376;-70
2022/04/28 03:37:59;;;;;;;;;;;;;;;;;;5030577;28;1375;-69
2022/04/28 03:40:27;;;;;;;;;;;;;;;;;;5030391;28;1445;-70
2022/04/28 03:42:54;;;;;;;;;;;;;;;;;;5031044;28;1358;-69
2022/04/28 03:45:22;;;;;;;;;;;;;;;;;;5030732;28;1380;-69
2022/04/28 03:47:50;;;;;;;;;;;;;;;;;;5030496;28;1910;-68
2022/04/28 03:50:18;;;;;;;;;;;;;;;;;;5030790;28;1143;-70
2022/04/28 03:52:44;;;;;;;;;;;;;;;;;;5030677;28;1318;-69
2022/04/28 03:55:12;;;;;;;;;;;;;;;;;;5030281;28;909;-69
2022/04/28 03:57:38;;;;;;;;;;;;;;;;;;5029853;28;1389;-70
2022/04/28 04:00:05;;;;;;;;;;;;;;;;;;5031127;28;1376;-70
2022/04/28 04:02:31;;;;;;;;;;;;;;;;;;5031985;28;920;-69
2022/04/28 04:04:59;;;;;;;;;;;;;;;;;;5030606;28;1614;-69
2022/04/28 04:07:30;;;;;;;;;;;;;;;;;;5030112;28;1987;-69
2022/04/28 04:10:16;;;;;;;;;;;;;;;;;;5030315;28;854;-71
2022/04/28 04:12:48;;;;;;;;;;;;;;;;;;5029829;28;1195;-71
2022/04/28 04:15:14;;;;;;;;;;;;;;;;;;5031904;28;847;-70
2022/04/28 04:17:54;;;;;;;;;;;;;;;;;;5030032;28;1330;-69
2022/04/28 04:20:23;;;;;;;;;;;;;;;;;;5030124;28;1376;-70
2022/04/28 04:22:51;;;;;;;;;;;;;;;;;;5031454;28;872;-70
2022/04/28 04:25:18;;;;;;;;;;;;;;;;;;5030157;28;1502;-71
2022/04/28 04:27:49;;;;;;;;;;;;;;;;;;5029717;28;1906;-70
2022/04/28 04:33:28;;;;;;;;;;;;;;;;;;5029773;28;1091;-69
2022/04/28 04:35:54;;;;;;;;;;;;;;;;;;5023232;28;1580;-70
2022/04/28 04:38:22;;;;;;;;;;;;;;;;;;5011352;28;1403;-70
2022/04/28 04:40:49;;;;;;;;;;;;;;;;;;5023815;28;1222;-70
2022/04/28 04:43:16;;;;;;;;;;;;;;;;;;5027307;28;1337;-70
2022/04/28 04:45:43;;;;;;;;;;;;;;;;;;5025532;28;1530;-71
2022/04/28 04:48:26;;;;;;;;;;;;;;;;;;5018979;28;1922;-71
2022/04/28 04:50:54;;;;;;;;;;;;;;;;;;5025674;28;1493;-70
2022/04/28 04:53:46;;;;;;;;;;;;;;;;;;5025604;28;1360;-70
2022/04/28 04:56:14;;;;;;;;;;;;;;;;;;5023791;28;1505;-69
2022/04/28 04:58:40;;;;;;;;;;;;;;;;;;5026659;28;1610;-69
2022/04/28 05:01:08;;;;;;;;;;;;;;;;;;5025703;28;1428;-71
2022/04/28 05:03:34;;;;;;;;;;;;;;;;;;5027772;28;1313;-70
2022/04/28 05:06:18;;;;;;;;;;;;;;;;;;5026324;28;1443;-72
2022/04/28 05:08:52;;;;;;;;;;;;;;;;;;5026623;28;1983;-72
2022/04/28 05:11:18;;;;;;;;;;;;;;;;;;5025243;28;1451;-71
2022/04/28 05:13:57;;;;;;;;;;;;;;;;;;5026629;28;1304;-72
2022/04/28 05:16:23;;;;;;;;;;;;;;;;;;5025737;28;1452;-71
2022/04/28 05:18:57;;;;;;;;;;;;;;;;;;5026640;28;1422;-71
2022/04/28 05:21:40;;;;;;;;;;;;;;;;;;5025732;28;1384;-71
2022/04/28 05:24:46;;;;;;;;;;;;;;;;;;5008899;28;1423;-71
2022/04/28 05:27:38;;;;;;;;;;;;;;;;;;5021229;28;1486;-72
2022/04/28 05:30:23;;;;;;;;;;;;;;;;;;5025987;28;1415;-71
2022/04/28 05:33:07;;;;;;;;;;;;;;;;;;5029941;28;1189;-70
2022/04/28 05:35:47;;;;;;;;;;;;;;;;;;5028114;28;1489;-71
2022/04/28 05:38:13;;;;;;;;;;;;;;;;;;5028750;28;1391;-71
2022/04/28 05:40:42;;;;;;;;;;;;;;;;;;5029228;28;1455;-71
2022/04/28 05:45:53;;;;;;;;;;;;;;;;;;5017514;28;1469;-70
2022/04/28 05:48:20;;;;;;;;;;;;;;;;;;5026488;28;1980;-71
2022/04/28 05:50:52;;;;;;;;;;;;;;;;;;5026843;28;2402;-70
2022/04/28 05:53:19;;;;;;;;;;;;;;;;;;5026549;28;1460;-70
2022/04/28 05:55:51;;;;;;;;;;;;;;;;;;5027666;28;1459;-69
2022/04/28 05:58:18;;;;;;;;;;;;;;;;;;5027519;28;1483;-70
2022/04/28 06:00:52;;;;;;;;;;;;;;;;;;5025482;28;1508;-69
2022/04/28 06:03:18;;;;;;;;;;;;;;;;;;5028395;28;1309;-70
2022/04/28 06:05:58;;;;;;;;;;;;;;;;;;5032024;28;1346;-71
2022/04/28 06:08:25;;;;;;;;;;;;;;;;;;5031360;28;1973;-69
2022/04/28 06:10:53;;;;;;;;;;;;;;;;;;5032926;28;1463;-69
2022/04/28 06:13:19;;;;;;;;;;;;;;;;;;5032385;28;1338;-69
2022/04/28 06:16:08;;;;;;;;;;;;;;;;;;5024175;28;1675;-69
2022/04/28 06:18:44;;;;;;;;;;;;;;;;;;5029084;28;1479;-67
2022/04/28 06:21:33;;;;;;;;;;;;;;;;;;5028086;28;1503;-70
2022/04/28 06:24:00;;;;;;;;;;;;;;;;;;5046804;28;1432;-70
2022/04/28 06:26:27;;;;;;;;;;;;;;;;;;5034624;28;1205;-70
2022/04/28 06:28:54;;;;;;;;;;;;;;;;;;5033497;28;1972;-68
2022/04/28 06:31:21;;;;;;;;;;;;;;;;;;5032334;28;1174;-69
2022/04/28 06:33:50;;;;;;;;;;;;;;;;;;5032192;28;2038;-69
2022/04/28 06:36:29;;;;;;;;;;;;;;;;;;5025684;28;1338;-68
2022/04/28 06:38:57;;;;;;;;;;;;;;;;;;5029685;28;1714;-70
2022/04/28 06:41:24;;;;;;;;;;;;;;;;;;5031018;28;2007;-70
2022/04/28 06:43:57;;;;;;;;;;;;;;;;;;5031994;28;1820;-70
2022/04/28 06:46:29;;;;;;;;;;;;;;;;;;5032618;28;918;-70
2022/04/28 06:49:04;;;;;;;;;;;;;;;;;;5032519;28;1983;-69
2022/04/28 06:52:00;;;;;;;;;;;;;;;;;;5032768;28;1263;-70
2022/04/28 06:54:47;;;;;;;;;;;;;;;;;;5031377;28;1067;-69
2022/04/28 06:57:19;;;;;;;;;;;;;;;;;;5029890;28;1483;-71
2022/04/28 06:59:47;;;;;;;;;;;;;;;;;;5030137;28;1443;-70
2022/04/28 07:02:17;;;;;;;;;;;;;;;;;;5029643;28;1496;-70
2022/04/28 07:04:46;;;;;;;;;;;;;;;;;;5031126;28;1618;-69
2022/04/28 07:07:15;;;;;;;;;;;;;;;;;;5034067;28;1394;-70
2022/04/28 07:09:44;;;;;;;;;;;;;;;;;;5030081;28;1968;-70
2022/04/28 07:12:11;;;;;;;;;;;;;;;;;;5032545;28;1202;-70
2022/04/28 07:15:11;;;;;;;;;;;;;;;;;;5016115;28;1380;-70
2022/04/28 07:18:12;;;;;;;;;;;;;;;;;;5031320;28;1408;-68
2022/04/28 07:20:39;;;;;;;;;;;;;;;;;;5030628;28;1450;-69
2022/04/28 07:23:05;;;;;;;;;;;;;;;;;;5030404;28;1457;-69
2022/04/28 07:25:31;;;;;;;;;;;;;;;;;;5031024;28;1435;-68
2022/04/28 07:27:58;;;;;;;;;;;;;;;;;;5030013;28;1481;-70
2022/04/28 07:30:44;;;;;;;;;;;;;;;;;;5028059;28;1968;-70
2022/04/28 07:33:23;;;;;;;;;;;;;;;;;;5028323;28;1068;-70
2022/04/28 07:36:21;;;;;;;;;;;;;;;;;;5027550;28;1407;-70
2022/04/28 07:39:07;;;;;;;;;;;;;;;;;;5028688;28;1403;-71
2022/04/28 07:41:44;;;;;;;;;;;;;;;;;;5029714;28;1099;-70
2022/04/28 07:44:11;;;;;;;;;;;;;;;;;;5029724;28;1394;-70
2022/04/28 07:46:38;;;;;;;;;;;;;;;;;;5028347;28;1398;-70
2022/04/28 07:49:05;;;;;;;;;;;;;;;;;;5028037;28;1926;-69
2022/04/28 07:51:35;;;;;;;;;;;;;;;;;;5028516;28;1683;-69
2022/04/28 07:54:02;;;;;;;;;;;;;;;;;;5028941;28;1465;-70
2022/04/28 07:56:29;;;;;;;;;;;;;;;;;;5027874;28;1538;-70
2022/04/28 07:58:55;;;;;;;;;;;;;;;;;;5027642;28;1954;-69
2022/04/28 08:01:27;;;;;;;;;;;;;;;;;;5028557;28;1724;-70
2022/04/28 08:03:56;;;;;;;;;;;;;;;;;;5029900;28;1152;-69
2022/04/28 08:06:23;;;;;;;;;;;;;;;;;;5023513;28;1378;-70
2022/04/28 08:08:49;;;;;;;;;;;;;;;;;;5028381;28;1922;-69
2022/04/28 08:11:16;;;;;;;;;;;;;;;;;;5029966;28;1130;-70
2022/04/28 08:13:42;;;;;;;;;;;;;;;;;;5028768;28;1425;-70
2022/04/28 08:16:22;;;;;;;;;;;;;;;;;;5029117;28;1392;-69
2022/04/28 08:18:49;;;;;;;;;;;;;;;;;;5028402;28;1590;-70
2022/04/28 08:21:24;;;;;;;;;;;;;;;;;;5029426;28;1024;-69
2022/04/28 08:23:50;;;;;;;;;;;;;;;;;;5028549;28;1530;-70
2022/04/28 08:26:19;;;;;;;;;;;;;;;;;;5027266;28;1506;-69
2022/04/28 08:28:46;;;;;;;;;;;;;;;;;;5032365;28;1914;-69
2022/04/28 08:31:13;;;;;;;;;;;;;;;;;;5031145;28;1560;-69
2022/04/28 08:33:39;;;;;;;;;;;;;;;;;;5028859;28;1449;-72
2022/04/28 08:36:07;;;;;;;;;;;;;;;;;;5028316;28;1413;-71
2022/04/28 08:38:38;;;;;;;;;;;;;;;;;;5028484;28;1374;-71
2022/04/28 08:41:05;;;;;;;;;;;;;;;;;;5029181;28;1460;-70
2022/04/28 08:43:51;;;;;;;;;;;;;;;;;;5027797;28;1364;-70
2022/04/28 08:49:03;;;;;;;;;;;;;;;;;;5027733;28;1987;-70
2022/04/28 08:51:35;;;;;;;;;;;;;;;;;;5025018;28;1513;-71
2022/04/28 08:54:05;;;;;;;;;;;;;;;;;;5027406;28;1430;-70
2022/04/28 08:56:32;;;;;;;;;;;;;;;;;;5023163;28;1471;-69
2022/04/28 08:59:03;;;;;;;;;;;;;;;;;;5041001;23;3471;-72
2022/04/28 09:01:30;;;;;;;;;;;;;;;;;;5034693;28;1142;-72
2022/04/28 09:04:34;;;;;;;;;;;;;;;;;;5044021;28;1539;-71
2022/04/28 09:07:19;;;;;;;;;;;;;;;;;;5016105;28;1391;-69
2022/04/28 09:10:20;;;;;;;;;;;;;;;;;;5038712;28;1895;-69
2022/04/28 09:16:05;;;;;;;;;;;;;;;;;;5037191;28;1760;-70
2022/04/28 09:18:31;;;;;;;;;;;;;;;;;;5034208;28;1787;-72
2022/04/28 09:20:57;;;;;;;;;;;;;;;;;;5034567;28;1735;-72
2022/04/28 09:23:23;;;;;;;;;;;;;;;;;;5036356;28;2160;-72
2022/04/28 09:25:53;;;;;;;;;;;;;;;;;;5030158;28;1359;-72
2022/04/28 09:28:20;;;;;;;;;;;;;;;;;;5049239;28;1468;-71
2022/04/28 09:30:50;;;;;;;;;;;;;;;;;;5029967;28;2034;-72
2022/04/28 09:33:44;;;;;;;;;;;;;;;;;;5045366;28;1522;-71
2022/04/28 09:36:44;;;;;;;;;;;;;;;;;;5024564;28;1292;-72
2022/04/28 09:42:29;;;;;;;;;;;;;;;;;;5033982;28;1494;-73
2022/04/28 09:44:54;;;;;;;;;;;;;;;;;;5028572;28;1461;-71
2022/04/28 09:47:21;;;;;;;;;;;;;;;;;;5044281;28;1516;-72
2022/04/28 09:49:52;;;;;;;;;;;;;;;;;;5028067;28;1911;-71
2022/04/28 09:52:31;;;;;;;;;;;;;;;;;;5035601;28;1003;-71
2022/04/28 09:55:24;;;;;;;;;;;;;;;;;;5031461;28;1431;-72
2022/04/28 09:58:10;;;;;;;;;;;;;;;;;;5029040;28;1173;-71
2022/04/28 10:00:39;;;;;;;;;;;;;;;;;;5032195;28;1341;-71
2022/04/28 10:03:08;;;;;;;;;;;;;;;;;;5031583;28;1161;-71
2022/04/28 10:05:38;;;;;;;;;;;;;;;;;;5031754;28;1614;-71
2022/04/28 10:08:24;;;;;;;;;;;;;;;;;;5021190;28;1575;-71
2022/04/28 10:10:53;;;;;;;;;;;;;;;;;;5028283;28;1977;-71
2022/04/28 10:13:19;;;;;;;;;;;;;;;;;;5028966;28;1256;-71
2022/04/28 10:15:52;;;;;;;;;;;;;;;;;;5028982;28;1623;-71
2022/04/28 10:18:18;;;;;;;;;;;;;;;;;;5043223;28;1487;-70
2022/04/28 10:20:46;;;;;;;;;;;;;;;;;;5042191;28;1445;-73
2022/04/28 10:23:13;;;;;;;;;;;;;;;;;;5043441;28;1416;-73
2022/04/28 10:34:28;;;;;;;;;;;;;;;;;;5039742;28;1367;-70
2022/04/28 10:36:55;;;;;;;;;;;;;;;;;;5029841;28;1371;-72
2022/04/28 10:39:38;;;;;;;;;;;;;;;;;;5027864;28;1395;-72
2022/04/28 10:42:11;;;;;;;;;;;;;;;;;;5028241;28;1181;-72
2022/04/28 10:44:39;;;;;;;;;;;;;;;;;;5048309;28;1415;-71
2022/04/28 10:47:08;;;;;;;;;;;;;;;;;;5029756;28;1208;-72
2022/04/28 10:49:36;;;;;;;;;;;;;;;;;;5027942;28;1919;-72
2022/04/28 10:52:04;;;;;;;;;;;;;;;;;;5032711;28;1233;-72
2022/04/28 10:54:37;;;;;;;;;;;;;;;;;;5029697;28;1478;-71
2022/04/28 10:57:06;;;;;;;;;;;;;;;;;;5030665;28;1621;-71
2022/04/28 10:59:36;;;;;;;;;;;;;;;;;;5032415;28;1316;-72
2022/04/28 11:02:29;;;;;;;;;;;;;;;;;;5037287;28;1412;-71
2022/04/28 11:05:03;;;;;;;;;;;;;;;;;;5031843;28;1205;-72
2022/04/28 11:07:29;;;;;;;;;;;;;;;;;;5032371;28;1407;-72
2022/04/28 11:09:58;;;;;;;;;;;;;;;;;;5032075;28;1918;-72
2022/04/28 11:12:26;;;;;;;;;;;;;;;;;;5029948;28;1505;-71
2022/04/28 11:14:59;;;;;;;;;;;;;;;;;;5028002;28;1476;-72
2022/04/28 11:17:25;;;;;;;;;;;;;;;;;;5035801;28;1459;-72
2022/04/28 11:19:52;;;;;;;;;;;;;;;;;;5031072;28;1470;-72
2022/04/28 11:22:19;;;;;;;;;;;;;;;;;;5034206;28;1415;-72
2022/04/28 11:24:46;;;;;;;;;;;;;;;;;;5033420;28;1041;-71
2022/04/28 11:27:34;;;;;;;;;;;;;;;;;;5028150;28;1398;-71
2022/04/28 11:30:10;;;;;;;;;;;;;;;;;;5047749;28;1985;-72
2022/04/28 11:32:36;;;;;;;;;;;;;;;;;;5037771;28;1526;-72
2022/04/28 11:35:03;;;;;;;;;;;;;;;;;;5031739;28;1419;-72
2022/04/28 11:37:30;;;;;;;;;;;;;;;;;;5032269;28;1420;-71
2022/04/28 11:39:57;;;;;;;;;;;;;;;;;;5028538;28;1430;-71
2022/04/28 11:42:25;;;;;;;;;;;;;;;;;;5035142;28;1356;-72
2022/04/28 11:44:52;;;;;;;;;;;;;;;;;;5031111;28;1400;-73
2022/04/28 11:47:18;;;;;;;;;;;;;;;;;;5029668;28;1008;-73
2022/04/28 11:49:44;;;;;;;;;;;;;;;;;;5032357;28;1922;-73
2022/04/28 11:52:18;;;;;;;;;;;;;;;;;;5031418;28;1641;-73
2022/04/28 11:54:49;;;;;;;;;;;;;;;;;;5030196;28;1396;-70
2022/04/28 11:57:15;;;;;;;;;;;;;;;;;;5039932;28;1553;-71
2022/04/28 11:59:41;;;;;;;;;;;;;;;;;;5032624;28;1360;-70
2022/04/28 12:02:22;;;;;;;;;;;;;;;;;;5042873;28;949;-71
2022/04/28 12:04:49;;;;;;;;;;;;;;;;;;5036326;28;1247;-72
2022/04/28 12:07:18;;;;;;;;;;;;;;;;;;5033505;28;1263;-72
2022/04/28 12:15:13;;;;;;;;;;;;;;;;;;5039189;28;877;-72
2022/04/28 12:20:37;;;;;;;;;;;;;;;;;;5039656;28;1314;-71
2022/04/28 12:23:03;;;;;;;;;;;;;;;;;;5031903;28;1011;-71
2022/04/28 12:25:33;;;;;;;;;;;;;;;;;;5031413;28;802;-72
2022/04/28 12:28:00;;;;;;;;;;;;;;;;;;5031452;28;1110;-72
2022/04/28 12:30:26;;;;;;;;;;;;;;;;;;5031164;28;1997;-72
2022/04/28 12:32:53;;;;;;;;;;;;;;;;;;5031421;28;1068;-72
2022/04/28 12:35:27;;;;;;;;;;;;;;;;;;5031325;28;779;-71
2022/04/28 12:37:56;;;;;;;;;;;;;;;;;;5030481;28;810;-72
2022/04/28 12:40:24;;;;;;;;;;;;;;;;;;5030678;28;1457;-73
2022/04/28 12:42:51;;;;;;;;;;;;;;;;;;5036833;28;1974;-73
2022/04/28 12:45:32;;;;;;;;;;;;;;;;;;5037736;28;1985;-73
2022/04/28 12:47:59;;;;;;;;;;;;;;;;;;5040983;28;1845;-71
2022/04/28 12:50:25;;;;;;;;;;;;;;;;;;5034464;28;2002;-71
2022/04/28 12:52:52;;;;;;;;;;;;;;;;;;5031183;28;1111;-71
2022/04/28 12:55:19;;;;;;;;;;;;;;;;;;5031054;28;791;-72
2022/04/28 12:57:46;;;;;;;;;;;;;;;;;;5028702;28;1187;-72
2022/04/28 13:00:14;;;;;;;;;;;;;;;;;;5029088;28;1370;-70
2022/04/28 13:02:46;;;;;;;;;;;;;;;;;;5030662;28;1072;-71
2022/04/28 13:05:13;;;;;;;;;;;;;;;;;;5030697;28;1080;-71
2022/04/28 13:07:40;;;;;;;;;;;;;;;;;;5030077;28;771;-72
2022/04/28 13:10:07;;;;;;;;;;;;;;;;;;5030046;28;1910;-71
2022/04/28 13:12:33;;;;;;;;;;;;;;;;;;5029804;28;1096;-73
2022/04/28 13:15:01;;;;;;;;;;;;;;;;;;5030648;28;771;-72
2022/04/28 13:17:29;;;;;;;;;;;;;;;;;;5030147;28;1064;-72
2022/04/28 13:19:55;;;;;;;;;;;;;;;;;;5030188;28;1306;-72
2022/04/28 13:22:21;;;;;;;;;;;;;;;;;;5030232;28;1004;-71
2022/04/28 13:24:47;;;;;;;;;;;;;;;;;;5030286;28;1080;-72
2022/04/28 13:27:14;;;;;;;;;;;;;;;;;;5029752;28;1092;-71
2022/04/28 13:29:40;;;;;;;;;;;;;;;;;;5027141;28;1487;-71
2022/04/28 13:32:07;;;;;;;;;;;;;;;;;;5027772;28;1989;-71
2022/04/28 13:34:35;;;;;;;;;;;;;;;;;;5027858;28;1142;-71
2022/04/28 13:37:01;;;;;;;;;;;;;;;;;;5035410;28;1491;-73
2022/04/28 13:39:27;;;;;;;;;;;;;;;;;;5029510;28;1483;-71
2022/04/28 13:41:53;;;;;;;;;;;;;;;;;;5033055;28;1145;-71
2022/04/28 13:44:20;;;;;;;;;;;;;;;;;;5026889;28;1330;-72
2022/04/28 13:46:46;;;;;;;;;;;;;;;;;;5035478;28;1367;-71
2022/04/28 13:49:12;;;;;;;;;;;;;;;;;;5029590;28;1436;-73
2022/04/28 13:51:40;;;;;;;;;;;;;;;;;;5028311;28;1914;-72
2022/04/28 13:54:06;;;;;;;;;;;;;;;;;;5029294;28;1304;-72
2022/04/28 13:56:32;;;;;;;;;;;;;;;;;;5029785;28;1268;-72
2022/04/28 13:58:59;;;;;;;;;;;;;;;;;;5028649;28;1420;-71
2022/04/28 14:01:25;;;;;;;;;;;;;;;;;;5026012;28;2106;-71
2022/04/28 14:03:52;;;;;;;;;;;;;;;;;;5028047;28;1350;-72
2022/04/28 14:06:18;;;;;;;;;;;;;;;;;;5028552;28;1458;-72
2022/04/28 14:08:45;;;;;;;;;;;;;;;;;;5028935;28;1432;-72
2022/04/28 14:11:12;;;;;;;;;;;;;;;;;;5028543;28;1922;-72
2022/04/28 14:13:38;;;;;;;;;;;;;;;;;;5028976;28;1354;-72
2022/04/28 14:16:05;;;;;;;;;;;;;;;;;;5044923;28;1396;-72
2022/04/28 14:18:31;;;;;;;;;;;;;;;;;;5044290;28;1510;-73
2022/04/28 14:20:58;;;;;;;;;;;;;;;;;;5034640;28;1252;-73
2022/04/28 14:23:24;;;;;;;;;;;;;;;;;;5029087;28;1378;-72
2022/04/28 14:25:52;;;;;;;;;;;;;;;;;;5033077;28;1122;-72
2022/04/28 14:28:18;;;;;;;;;;;;;;;;;;5031287;28;1388;-72
2022/04/28 14:30:44;;;;;;;;;;;;;;;;;;5040066;28;1973;-73
2022/04/28 14:33:10;;;;;;;;;;;;;;;;;;5031931;28;1326;-70
2022/04/28 14:35:37;;;;;;;;;;;;;;;;;;5028697;28;1229;-72
2022/04/28 14:38:03;;;;;;;;;;;;;;;;;;5039203;28;1458;-71
2022/04/28 14:40:30;;;;;;;;;;;;;;;;;;5031561;28;1504;-72
2022/04/28 14:42:58;;;;;;;;;;;;;;;;;;5034544;28;1390;-72
2022/04/28 14:45:24;;;;;;;;;;;;;;;;;;5039126;28;1529;-71
2022/04/28 14:47:50;;;;;;;;;;;;;;;;;;5035697;28;1165;-72
2022/04/28 14:53:00;;;;;;;;;;;;;;;;;;5032990;28;1173;-72
2022/04/28 14:55:26;;;;;;;;;;;;;;;;;;5032894;28;969;-72
2022/04/28 14:57:53;;;;;;;;;;;;;;;;;;5031002;28;1439;-72
2022/04/28 15:00:21;;;;;;;;;;;;;;;;;;5032723;28;1326;-71
2022/04/28 15:02:48;;;;;;;;;;;;;;;;;;5045311;28;854;-72
2022/04/28 15:05:14;;;;;;;;;;;;;;;;;;5043166;28;1057;-73
2022/04/28 15:07:40;;;;;;;;;;;;;;;;;;5053673;22;1991;-69
2022/04/28 15:10:08;;;;;;;;;;;;;;;;;;5050591;28;1062;-68
2022/04/28 15:12:35;;;;;;;;;;;;;;;;;;5052057;28;1913;-68
2022/04/28 15:15:02;;;;;;;;;;;;;;;;;;5052817;28;941;-68
2022/04/28 15:17:31;;;;;;;;;;;;;;;;;;5052262;28;1325;-68
2022/04/28 15:19:57;;;;;;;;;;;;;;;;;;5052211;28;882;-70
2022/04/28 15:22:23;;;;;;;;;;;;;;;;;;5052432;28;1067;-69
2022/04/28 15:24:49;;;;;;;;;;;;;;;;;;5052305;28;870;-68
2022/04/28 15:27:15;;;;;;;;;;;;;;;;;;5051208;28;1337;-70
2022/04/28 15:29:42;;;;;;;;;;;;;;;;;;5051732;28;850;-70
2022/04/28 15:32:08;;;;;;;;;;;;;;;;;;5051214;28;1910;-71
2022/04/28 15:34:37;;;;;;;;;;;;;;;;;;5048152;28;1801;-71
2022/04/28 15:37:04;;;;;;;;;;;;;;;;;;5049768;28;1473;-68
2022/04/28 15:39:30;;;;;;;;;;;;;;;;;;5054969;28;1276;-71
2022/04/28 15:41:56;;;;;;;;;;;;;;;;;;5048104;28;1333;-71
2022/04/28 15:44:22;;;;;;;;;;;;;;;;;;5050963;28;1458;-68
2022/04/28 15:46:48;;;;;;;;;;;;;;;;;;5050195;28;1418;-67
2022/04/28 15:49:15;;;;;;;;;;;;;;;;;;5051011;28;1755;-68
2022/04/28 15:51:43;;;;;;;;;;;;;;;;;;5049589;28;1910;-68
2022/04/28 15:54:10;;;;;;;;;;;;;;;;;;5047782;28;1457;-67
2022/04/28 15:56:37;;;;;;;;;;;;;;;;;;5046195;28;1510;-69
2022/04/28 15:59:04;;;;;;;;;;;;;;;;;;5050152;28;1361;-71
2022/04/28 16:01:31;;;;;;;;;;;;;;;;;;5049543;28;1610;-70
2022/04/28 16:03:57;;;;;;;;;;;;;;;;;;5051788;28;1303;-71
2022/04/28 16:06:24;;;;;;;;;;;;;;;;;;5051365;28;1309;-70
2022/04/28 16:08:51;;;;;;;;;;;;;;;;;;5050394;28;1032;-71
2022/04/28 16:11:18;;;;;;;;;;;;;;;;;;5051775;28;1903;-71
2022/04/28 16:13:46;;;;;;;;;;;;;;;;;;5045594;28;1869;-71
2022/04/28 16:16:12;;;;;;;;;;;;;;;;;;5049069;28;1456;-70
2022/04/28 16:18:38;;;;;;;;;;;;;;;;;;5049516;28;1407;-71
2022/04/28 16:21:04;;;;;;;;;;;;;;;;;;5049704;28;1391;-73
2022/04/28 16:23:31;;;;;;;;;;;;;;;;;;5051728;28;1137;-72
2022/04/28 16:25:58;;;;;;;;;;;;;;;;;;5050258;28;1501;-67
2022/04/28 16:28:24;;;;;;;;;;;;;;;;;;5049124;28;1350;-69
2022/04/28 16:30:50;;;;;;;;;;;;;;;;;;5051514;28;1185;-70
2022/04/28 16:33:17;;;;;;;;;;;;;;;;;;5050676;28;1918;-70
2022/04/28 16:35:43;;;;;;;;;;;;;;;;;;5051197;28;1216;-69
2022/04/28 16:38:09;;;;;;;;;;;;;;;;;;5050118;28;1411;-71
2022/04/28 16:40:35;;;;;;;;;;;;;;;;;;5051126;28;1130;-70
2022/04/28 16:43:03;;;;;;;;;;;;;;;;;;5050209;28;1287;-72
2022/04/28 16:45:29;;;;;;;;;;;;;;;;;;5050527;28;1478;-69
2022/04/28 16:47:55;;;;;;;;;;;;;;;;;;5043887;28;1496;-69
2022/04/28 16:50:21;;;;;;;;;;;;;;;;;;5048896;28;1367;-69
2022/04/28 16:52:48;;;;;;;;;;;;;;;;;;5048689;28;1977;-68
2022/04/28 16:55:15;;;;;;;;;;;;;;;;;;5047432;28;1518;-73
2022/04/28 16:57:42;;;;;;;;;;;;;;;;;;5048875;28;1412;-70
2022/04/28 17:00:11;;;;;;;;;;;;;;;;;;5047862;28;1474;-72
2022/04/28 17:05:20;;;;;;;;;;;;;;;;;;5048719;28;1471;-70
2022/04/28 17:07:46;;;;;;;;;;;;;;;;;;5048635;28;1397;-69
2022/04/28 17:10:12;;;;;;;;;;;;;;;;;;5048657;28;1408;-71
2022/04/28 17:12:39;;;;;;;;;;;;;;;;;;5049221;28;1922;-69
2022/04/28 17:15:06;;;;;;;;;;;;;;;;;;5049779;28;1477;-71
2022/04/28 17:17:35;;;;;;;;;;;;;;;;;;5050271;28;1418;-71
2022/04/28 17:20:01;;;;;;;;;;;;;;;;;;5063281;28;1466;-69
2022/04/28 17:22:27;;;;;;;;;;;;;;;;;;5048363;28;1529;-70
2022/04/28 17:24:54;;;;;;;;;;;;;;;;;;5048246;28;839;-70
2022/04/28 17:27:23;;;;;;;;;;;;;;;;;;5044587;28;1517;-70
2022/04/28 17:29:49;;;;;;;;;;;;;;;;;;5047043;28;1394;-70
2022/04/28 17:32:15;;;;;;;;;;;;;;;;;;5048300;28;1942;-71
2022/04/28 17:34:46;;;;;;;;;;;;;;;;;;5043979;28;1585;-70
2022/04/28 17:37:12;;;;;;;;;;;;;;;;;;5047797;28;1481;-69
2022/04/28 17:39:39;;;;;;;;;;;;;;;;;;5042085;28;1407;-70
2022/04/28 17:42:07;;;;;;;;;;;;;;;;;;5046622;28;1431;-70
2022/04/28 17:44:33;;;;;;;;;;;;;;;;;;5048011;28;1146;-71
2022/04/28 17:46:59;;;;;;;;;;;;;;;;;;5046390;28;1460;-70
2022/04/28 17:49:25;;;;;;;;;;;;;;;;;;5045547;28;1460;-70
2022/04/28 17:51:53;;;;;;;;;;;;;;;;;;5048258;28;1981;-70
2022/04/28 17:54:19;;;;;;;;;;;;;;;;;;5046048;28;1406;-69
2022/04/28 17:59:53;;;;;;;;;;;;;;;;;;5048916;28;1505;-70
2022/04/28 18:02:20;;;;;;;;;;;;;;;;;;5031165;28;1514;-69
2022/04/28 18:04:46;;;;;;;;;;;;;;;;;;5051452;28;1542;-70
2022/04/28 18:07:14;;;;;;;;;;;;;;;;;;5050828;28;1515;-70
2022/04/28 18:09:40;;;;;;;;;;;;;;;;;;5051744;28;1110;-69
2022/04/28 18:12:07;;;;;;;;;;;;;;;;;;5050042;28;1910;-70